createdAt,value
2022-09-10T00:01:29.810Z,13.92
2022-09-10T00:03:57.784Z,13.92
2022-09-10T00:06:27.792Z,13.93
2022-09-10T00:08:59.201Z,13.95
2022-09-10T00:11:32.235Z,13.92
2022-09-10T00:14:00.958Z,13.86
2022-09-10T00:16:28.565Z,13.84
2022-09-10T00:18:57.413Z,13.87
2022-09-10T00:21:24.355Z,13.83
2022-09-10T00:23:51.133Z,13.83
2022-09-10T00:26:24.671Z,13.84
2022-09-10T00:28:52.965Z,13.86
2022-09-10T00:31:22.085Z,13.87
2022-09-10T00:33:50.818Z,13.90
2022-09-10T00:36:30.537Z,13.95
2022-09-10T00:39:00.601Z,14.00
2022-09-10T00:41:27.902Z,14.03
2022-09-10T00:44:02.799Z,14.01
2022-09-10T00:46:43.591Z,13.95
2022-09-10T00:49:21.620Z,13.95
2022-09-10T00:51:52.574Z,13.93
2022-09-10T00:54:24.381Z,13.91
2022-09-10T00:56:53.727Z,13.90
2022-09-10T00:59:23.836Z,13.93
2022-09-10T01:01:50.760Z,13.96
2022-09-10T01:04:17.837Z,13.95
2022-09-10T01:06:46.691Z,13.91
2022-09-10T01:09:15.317Z,13.91
2022-09-10T01:11:57.623Z,13.89
2022-09-10T01:14:51.868Z,13.82
2022-09-10T01:17:25.933Z,13.80
2022-09-10T01:20:30.485Z,13.73
2022-09-10T01:23:17.033Z,13.63
2022-09-10T01:26:03.604Z,13.58
2022-09-10T01:28:49.594Z,13.56
2022-09-10T01:31:31.626Z,13.57
2022-09-10T01:34:17.006Z,13.58
2022-09-10T01:36:49.227Z,13.53
2022-09-10T01:39:20.949Z,13.50
2022-09-10T01:41:52.955Z,13.48
2022-09-10T01:44:47.681Z,13.49
2022-09-10T01:47:40.327Z,13.52
2022-09-10T01:50:10.108Z,13.57
2022-09-10T01:52:47.408Z,13.62
2022-09-10T01:55:45.242Z,13.65
2022-09-10T01:58:19.177Z,13.65
2022-09-10T02:01:07.458Z,13.70
2022-09-10T02:03:37.585Z,13.70
2022-09-10T02:06:09.647Z,13.70
2022-09-10T02:08:43.196Z,13.72
2022-09-10T02:11:12.932Z,13.70
2022-09-10T02:13:43.236Z,13.71
2022-09-10T02:16:31.437Z,13.73
2022-09-10T02:19:00.882Z,13.74
2022-09-10T02:21:28.342Z,13.77
2022-09-10T02:24:00.040Z,13.77
2022-09-10T02:26:27.866Z,13.76
2022-09-10T02:28:54.980Z,13.80
2022-09-10T02:31:22.867Z,13.82
2022-09-10T02:33:49.833Z,13.84
2022-09-10T02:36:16.759Z,13.86
2022-09-10T02:38:44.571Z,13.88
2022-09-10T02:41:11.754Z,13.87
2022-09-10T02:43:38.865Z,13.86
2022-09-10T02:46:07.598Z,13.86
2022-09-10T02:48:36.103Z,13.85
2022-09-10T02:51:03.542Z,13.86
2022-09-10T02:53:31.861Z,13.86
2022-09-10T02:56:03.400Z,13.88
2022-09-10T02:58:34.332Z,13.90
2022-09-10T03:01:28.802Z,13.88
2022-09-10T03:04:01.690Z,13.85
2022-09-10T03:06:29.662Z,13.82
2022-09-10T03:08:58.503Z,13.82
2022-09-10T03:11:27.622Z,13.82
2022-09-10T03:13:55.637Z,13.83
2022-09-10T03:16:24.614Z,13.83
2022-09-10T03:18:52.598Z,13.80
2022-09-10T03:21:23.419Z,13.79
2022-09-10T03:23:52.842Z,13.78
2022-09-10T03:26:28.314Z,13.78
2022-09-10T03:28:55.382Z,13.78
2022-09-10T03:31:24.890Z,13.78
2022-09-10T03:33:51.819Z,13.73
2022-09-10T03:36:21.073Z,13.68
2022-09-10T03:38:49.334Z,13.66
2022-09-10T03:41:16.345Z,13.66
2022-09-10T03:43:43.365Z,13.70
2022-09-10T03:46:12.277Z,13.67
2022-09-10T03:48:43.838Z,13.64
2022-09-10T03:51:11.140Z,13.58
2022-09-10T03:53:39.072Z,13.58
2022-09-10T03:56:07.409Z,13.61
2022-09-10T03:58:35.993Z,13.64
2022-09-10T04:01:04.255Z,13.58
2022-09-10T04:03:31.739Z,13.57
2022-09-10T04:05:58.850Z,13.58
2022-09-10T04:08:26.003Z,13.60
2022-09-10T04:10:53.392Z,13.59
2022-09-10T04:13:20.247Z,13.58
2022-09-10T04:15:47.446Z,13.55
2022-09-10T04:18:15.035Z,13.56
2022-09-10T04:20:43.853Z,13.58
2022-09-10T04:23:10.915Z,13.53
2022-09-10T04:25:40.038Z,13.47
2022-09-10T04:28:09.756Z,13.42
2022-09-10T04:30:38.037Z,13.33
2022-09-10T04:33:05.414Z,13.30
2022-09-10T04:35:33.058Z,13.35
2022-09-10T04:38:02.262Z,13.40
2022-09-10T04:40:29.734Z,13.37
2022-09-10T04:42:56.742Z,13.39
2022-09-10T04:45:24.062Z,13.39
2022-09-10T04:47:53.295Z,13.41
2022-09-10T04:50:22.354Z,13.41
2022-09-10T04:53:08.322Z,13.42
2022-09-10T04:55:39.641Z,13.46
